Time;durP1;ratioP1;P1;durP2;ratioP2;P2;SDS_P1;SDS_P2;PMS_P1;PMS_P2;Temp;Humidity;BMP_temperature;BMP_pressure;BME280_temperature;BME280_humidity;BME280_pressure;Samples;Min_cycle;Max_cycle;Signal;HPM_P1;HPM_P2
2023/12/28 00:00:45;;;;;;;2.47;2.10;;;9.10;99.90;;;;;;5021035;28;20187;-76
2023/12/28 00:03:12;;;;;;;2.30;1.93;;;9.00;99.90;;;;;;5004662;28;20216;-76
2023/12/28 00:05:39;;;;;;;4.57;2.40;;;9.10;99.90;;;;;;4992573;28;20204;-76
2023/12/28 00:08:07;;;;;;;3.90;2.73;;;9.00;99.90;;;;;;5005958;28;20215;-76
2023/12/28 00:10:36;;;;;;;3.43;2.40;;;9.10;99.90;;;;;;5011929;28;20200;-76
2023/12/28 00:13:04;;;;;;;4.30;2.47;;;9.00;99.90;;;;;;5013412;28;20222;-76
2023/12/28 00:15:33;;;;;;;5.13;2.40;;;9.00;99.90;;;;;;5016448;28;20211;-76
2023/12/28 00:18:00;;;;;;;4.13;2.17;;;9.00;99.90;;;;;;4995102;28;20650;-76
2023/12/28 00:20:27;;;;;;;2.80;2.50;;;9.00;99.90;;;;;;5002230;28;20205;-76
2023/12/28 00:22:55;;;;;;;2.67;2.13;;;9.00;99.90;;;;;;4993691;28;20223;-76
2023/12/28 00:25:22;;;;;;;2.60;2.17;;;9.00;99.90;;;;;;5013946;28;20214;-76
2023/12/28 00:27:50;;;;;;;3.60;2.00;;;9.00;99.90;;;;;;5023523;28;20218;-76
2023/12/28 00:30:18;;;;;;;3.30;2.53;;;9.00;99.90;;;;;;5032298;28;20198;-76
2023/12/28 00:32:47;;;;;;;4.37;2.37;;;9.10;99.90;;;;;;5030880;28;20219;-76
2023/12/28 00:35:14;;;;;;;2.53;2.10;;;9.10;99.90;;;;;;5032678;28;20557;-76
2023/12/28 00:37:42;;;;;;;5.40;2.70;;;9.20;99.90;;;;;;5014910;28;20180;-76
2023/12/28 00:40:10;;;;;;;2.80;2.50;;;9.20;99.90;;;;;;5005280;28;20551;-76
2023/12/28 00:42:39;;;;;;;2.37;2.17;;;9.20;99.90;;;;;;4991714;28;20590;-76
2023/12/28 00:45:07;;;;;;;5.53;2.63;;;9.20;99.90;;;;;;5004453;28;20199;-76
2023/12/28 00:47:35;;;;;;;3.20;2.37;;;9.30;99.90;;;;;;5011339;28;20223;-76
2023/12/28 00:50:04;;;;;;;3.87;2.70;;;9.20;99.90;;;;;;5011425;28;20204;-76
2023/12/28 00:52:31;;;;;;;4.00;2.80;;;9.20;99.90;;;;;;4992117;28;20200;-77
2023/12/28 00:54:59;;;;;;;2.50;2.20;;;9.20;99.90;;;;;;4993088;28;20650;-76
2023/12/28 00:57:26;;;;;;;3.20;2.43;;;9.20;99.90;;;;;;4992374;28;20590;-76
2023/12/28 00:59:53;;;;;;;4.20;2.00;;;9.30;99.90;;;;;;5003380;28;20184;-77
2023/12/28 01:02:22;;;;;;;3.70;2.20;;;9.30;99.90;;;;;;4999976;28;20211;-76
2023/12/28 01:04:49;;;;;;;3.30;2.60;;;9.30;99.90;;;;;;5007122;28;20580;-76
2023/12/28 01:07:18;;;;;;;3.40;2.27;;;9.30;99.90;;;;;;5012664;28;20187;-76
2023/12/28 01:09:45;;;;;;;3.90;2.23;;;9.30;99.90;;;;;;5011399;28;20216;-76
2023/12/28 01:12:13;;;;;;;3.90;2.33;;;9.30;99.90;;;;;;5010971;28;20200;-77
2023/12/28 01:14:40;;;;;;;2.90;2.27;;;9.40;99.90;;;;;;4991299;28;20240;-76
2023/12/28 01:17:08;;;;;;;4.93;2.60;;;9.40;99.90;;;;;;4990872;28;20211;-77
2023/12/28 01:19:35;;;;;;;4.50;2.23;;;9.50;99.90;;;;;;4991579;28;20200;-76
2023/12/28 01:22:02;;;;;;;3.13;2.60;;;9.50;99.90;;;;;;4992730;28;20196;-76
2023/12/28 01:24:31;;;;;;;2.73;2.27;;;9.60;99.90;;;;;;4991320;28;20225;-76
2023/12/28 01:26:59;;;;;;;3.30;2.63;;;9.60;99.90;;;;;;4991337;28;20196;-77
2023/12/28 01:29:26;;;;;;;3.13;1.90;;;9.70;99.90;;;;;;4993563;28;20673;-77
2023/12/28 01:31:53;;;;;;;3.40;2.20;;;9.70;99.90;;;;;;4993875;28;20196;-77
2023/12/28 01:34:21;;;;;;;2.60;2.23;;;9.80;99.90;;;;;;4992139;28;20220;-77
2023/12/28 01:36:48;;;;;;;2.30;2.10;;;9.80;99.90;;;;;;4991041;28;20677;-76
2023/12/28 01:39:18;;;;;;;3.83;2.20;;;9.90;99.90;;;;;;5006336;28;20188;-76
2023/12/28 01:41:46;;;;;;;2.60;2.30;;;9.90;99.90;;;;;;5011572;28;20676;-76
2023/12/28 01:44:14;;;;;;;3.17;1.83;;;9.90;99.90;;;;;;4999641;28;20231;-76
2023/12/28 01:46:42;;;;;;;4.23;2.70;;;9.90;99.90;;;;;;4991017;28;20207;-77
2023/12/28 01:49:09;;;;;;;3.63;2.13;;;10.00;99.90;;;;;;4992824;28;20208;-76
2023/12/28 01:51:37;;;;;;;3.37;2.13;;;10.00;99.90;;;;;;5021211;28;20649;-76
2023/12/28 01:54:05;;;;;;;2.40;2.07;;;10.00;99.90;;;;;;5033733;28;20219;-76
2023/12/28 01:56:32;;;;;;;2.23;2.03;;;10.10;99.90;;;;;;5034670;28;20829;-77
2023/12/28 01:59:01;;;;;;;2.50;1.93;;;10.10;99.90;;;;;;5034109;28;20661;-76
2023/12/28 02:01:29;;;;;;;2.97;2.07;;;10.20;99.90;;;;;;5034482;28;20199;-76
2023/12/28 02:03:58;;;;;;;4.30;2.30;;;10.20;99.90;;;;;;5010456;28;20212;-76
2023/12/28 02:06:25;;;;;;;3.80;2.33;;;10.20;99.90;;;;;;5006900;28;20207;-76
2023/12/28 02:08:52;;;;;;;3.23;2.10;;;10.20;99.90;;;;;;5014168;28;20227;-76
2023/12/28 02:11:20;;;;;;;2.93;2.20;;;10.20;99.90;;;;;;5031365;28;20202;-76
2023/12/28 02:13:48;;;;;;;4.07;2.43;;;10.30;99.90;;;;;;5035464;28;20222;-78
2023/12/28 02:16:29;;;;;;;3.73;2.40;;;10.20;99.90;;;;;;5031761;28;20200;-78
2023/12/28 02:19:00;;;;;;;2.73;2.17;;;10.30;99.90;;;;;;5025698;28;20196;-76
2023/12/28 02:21:29;;;;;;;2.77;2.33;;;10.20;99.90;;;;;;5033834;28;20195;-76
2023/12/28 02:23:56;;;;;;;3.00;2.20;;;10.20;99.90;;;;;;5033549;28;20230;-76
2023/12/28 02:26:24;;;;;;;2.20;1.67;;;10.30;99.90;;;;;;5033284;28;20286;-76
2023/12/28 02:28:51;;;;;;;4.00;1.83;;;10.20;99.90;;;;;;5005585;28;20212;-76
2023/12/28 02:31:26;;;;;;;3.20;2.53;;;10.20;99.90;;;;;;4994781;28;20197;-78
2023/12/28 02:33:59;;;;;;;3.87;2.53;;;10.30;99.90;;;;;;4995524;28;20224;-76
2023/12/28 02:36:28;;;;;;;2.40;2.10;;;10.20;99.90;;;;;;4998698;28;20200;-77
2023/12/28 02:38:59;;;;;;;3.37;2.00;;;10.20;99.90;;;;;;5019364;28;20195;-76
2023/12/28 02:41:28;;;;;;;4.13;2.10;;;10.30;99.90;;;;;;5026115;28;20200;-76
2023/12/28 02:43:55;;;;;;;2.57;2.33;;;10.30;99.90;;;;;;5006548;28;20224;-76
2023/12/28 02:46:23;;;;;;;2.30;1.87;;;10.20;99.90;;;;;;5004873;28;20210;-76
2023/12/28 02:48:52;;;;;;;2.33;1.93;;;10.30;99.90;;;;;;5005735;28;20208;-76
2023/12/28 02:51:20;;;;;;;3.33;2.30;;;10.20;99.90;;;;;;5026107;28;20211;-78
2023/12/28 02:53:47;;;;;;;2.90;2.20;;;10.20;99.90;;;;;;5014608;28;20211;-76
2023/12/28 02:56:14;;;;;;;3.80;2.00;;;10.20;99.90;;;;;;5012629;28;20206;-76
2023/12/28 02:58:44;;;;;;;3.20;2.30;;;10.30;99.90;;;;;;5009996;28;20247;-76
2023/12/28 03:01:11;;;;;;;3.20;2.27;;;10.30;99.90;;;;;;5020080;28;20198;-76
2023/12/28 03:03:39;;;;;;;4.37;2.63;;;10.20;99.90;;;;;;5014268;28;20216;-76
2023/12/28 03:06:06;;;;;;;2.63;2.23;;;10.20;99.90;;;;;;5011336;28;20677;-76
2023/12/28 03:08:34;;;;;;;3.10;2.40;;;10.20;99.90;;;;;;5029586;28;20203;-76
2023/12/28 03:11:01;;;;;;;2.67;2.23;;;10.20;99.90;;;;;;5028280;28;20212;-77
2023/12/28 03:13:29;;;;;;;3.47;1.87;;;10.20;99.90;;;;;;5019708;28;20220;-76
2023/12/28 03:15:57;;;;;;;2.83;2.17;;;10.20;99.90;;;;;;4993102;28;20200;-76
2023/12/28 03:18:25;;;;;;;4.17;2.33;;;10.20;99.90;;;;;;4994763;28;20199;-76
2023/12/28 03:20:53;;;;;;;4.40;2.10;;;10.30;99.90;;;;;;5011496;28;20200;-76
2023/12/28 03:23:21;;;;;;;3.40;2.73;;;10.30;99.90;;;;;;5013059;28;20224;-76
2023/12/28 03:25:48;;;;;;;2.40;2.20;;;10.30;99.90;;;;;;4992988;28;20204;-76
2023/12/28 03:28:16;;;;;;;2.53;2.30;;;10.20;99.90;;;;;;5017063;28;20688;-76
2023/12/28 03:30:43;;;;;;;2.77;2.17;;;10.30;99.90;;;;;;5017936;28;20203;-76
2023/12/28 03:33:12;;;;;;;3.87;2.47;;;10.30;99.90;;;;;;5032223;28;20222;-76
2023/12/28 03:35:40;;;;;;;3.40;2.43;;;10.30;99.90;;;;;;5031782;28;20199;-76
2023/12/28 03:38:08;;;;;;;4.97;2.33;;;10.30;99.90;;;;;;5033563;28;20190;-76
2023/12/28 03:40:35;;;;;;;2.83;2.43;;;10.40;99.90;;;;;;5014672;28;20191;-76
2023/12/28 03:43:03;;;;;;;3.80;2.53;;;10.40;99.90;;;;;;5008935;28;20240;-76
2023/12/28 03:45:30;;;;;;;3.80;2.30;;;10.30;99.90;;;;;;4992777;28;20550;-76
2023/12/28 03:47:58;;;;;;;2.57;2.27;;;10.40;99.90;;;;;;4994026;28;20195;-76
2023/12/28 03:50:26;;;;;;;5.03;2.40;;;10.30;99.90;;;;;;4992431;28;20227;-76
2023/12/28 03:52:54;;;;;;;3.13;2.60;;;10.30;99.90;;;;;;4991948;28;20223;-76
2023/12/28 03:55:22;;;;;;;4.40;2.73;;;10.40;99.90;;;;;;5006975;28;20202;-76
2023/12/28 03:57:51;;;;;;;5.27;2.77;;;10.40;99.90;;;;;;4993359;28;20196;-76
2023/12/28 04:00:18;;;;;;;2.43;2.17;;;10.40;99.90;;;;;;4992559;28;20654;-76
2023/12/28 04:02:46;;;;;;;4.10;2.40;;;10.40;99.90;;;;;;5019448;28;20211;-77
2023/12/28 04:05:13;;;;;;;4.57;2.53;;;10.50;99.90;;;;;;4997288;28;20195;-76
2023/12/28 04:07:42;;;;;;;2.67;2.17;;;10.50;99.90;;;;;;5003156;28;20197;-76
2023/12/28 04:10:10;;;;;;;3.87;2.30;;;10.40;99.90;;;;;;4985887;28;20208;-78
2023/12/28 04:12:39;;;;;;;8.17;2.73;;;10.40;99.90;;;;;;5005691;28;20227;-76
2023/12/28 04:15:07;;;;;;;3.30;2.33;;;10.50;99.90;;;;;;5011518;28;20207;-76
2023/12/28 04:17:34;;;;;;;3.63;2.50;;;10.50;99.90;;;;;;5012088;28;20196;-76
2023/12/28 04:20:02;;;;;;;4.17;2.27;;;10.50;99.90;;;;;;5012091;28;20191;-76
2023/12/28 04:22:29;;;;;;;3.70;2.50;;;10.60;99.90;;;;;;5010908;28;20680;-76
2023/12/28 04:24:58;;;;;;;3.53;2.17;;;10.50;99.90;;;;;;5011424;28;20206;-76
2023/12/28 04:27:26;;;;;;;2.80;2.50;;;10.50;99.90;;;;;;5011356;28;20696;-76
2023/12/28 04:29:53;;;;;;;3.37;2.30;;;10.60;99.90;;;;;;5013025;28;20199;-76
2023/12/28 04:32:21;;;;;;;3.07;2.47;;;10.60;99.90;;;;;;5008512;28;20204;-76
2023/12/28 04:34:48;;;;;;;4.53;2.80;;;10.60;99.90;;;;;;4991890;28;20200;-77
2023/12/28 04:37:15;;;;;;;4.80;2.73;;;10.60;99.90;;;;;;4992054;28;20662;-76
2023/12/28 04:39:43;;;;;;;4.03;2.10;;;10.60;99.90;;;;;;5008106;28;20192;-76
2023/12/28 04:42:12;;;;;;;4.27;2.43;;;10.50;99.90;;;;;;4991737;28;20567;-76
2023/12/28 04:44:39;;;;;;;4.93;2.77;;;10.60;99.90;;;;;;4991287;28;20228;-76
2023/12/28 04:47:07;;;;;;;3.53;2.30;;;10.60;99.90;;;;;;4991862;28;20658;-76
2023/12/28 04:49:34;;;;;;;6.20;2.60;;;10.70;99.90;;;;;;4977593;28;20216;-76
2023/12/28 04:52:01;;;;;;;2.33;2.13;;;10.70;99.90;;;;;;5012787;28;20650;-76
2023/12/28 04:54:29;;;;;;;5.00;2.00;;;10.70;99.90;;;;;;5007617;28;20208;-76
2023/12/28 04:56:56;;;;;;;3.40;2.00;;;10.70;99.90;;;;;;4992922;28;20212;-76
2023/12/28 04:59:25;;;;;;;4.10;2.30;;;10.70;99.90;;;;;;5011791;28;20522;-76
2023/12/28 05:01:53;;;;;;;3.17;2.40;;;10.80;99.90;;;;;;5000238;28;20199;-76
2023/12/28 05:04:20;;;;;;;3.27;2.47;;;10.80;99.90;;;;;;5010581;28;20685;-76
2023/12/28 05:06:47;;;;;;;4.50;2.30;;;10.80;99.90;;;;;;5010718;28;20573;-76
2023/12/28 05:09:15;;;;;;;3.63;2.30;;;10.80;99.90;;;;;;5010867;28;20200;-76
2023/12/28 05:11:42;;;;;;;3.60;2.13;;;10.80;99.90;;;;;;5007186;28;20223;-76
2023/12/28 05:14:09;;;;;;;4.50;2.30;;;10.90;99.90;;;;;;5010787;28;20223;-76
2023/12/28 05:16:38;;;;;;;6.30;2.10;;;10.90;99.90;;;;;;5011097;28;20199;-76
2023/12/28 05:19:05;;;;;;;3.37;2.10;;;11.00;99.90;;;;;;5010195;28;20196;-76
2023/12/28 05:21:33;;;;;;;3.00;2.00;;;10.90;99.90;;;;;;4993055;28;20192;-76
2023/12/28 05:24:00;;;;;;;3.53;2.07;;;10.80;99.90;;;;;;4992544;28;20223;-76
2023/12/28 05:26:28;;;;;;;3.97;2.10;;;10.80;99.90;;;;;;4994146;28;20219;-76
2023/12/28 05:28:55;;;;;;;2.60;2.00;;;10.90;99.90;;;;;;5007964;28;20250;-76
2023/12/28 05:31:22;;;;;;;5.60;1.90;;;10.80;99.90;;;;;;5014375;28;20215;-76
2023/12/28 05:33:51;;;;;;;2.37;1.80;;;10.80;99.90;;;;;;5014775;28;20215;-76
2023/12/28 05:36:19;;;;;;;4.33;2.00;;;10.90;99.90;;;;;;5014757;28;20207;-76
2023/12/28 05:38:46;;;;;;;2.60;1.70;;;10.70;99.90;;;;;;5014564;28;20203;-76
2023/12/28 05:41:13;;;;;;;2.70;1.80;;;10.80;99.90;;;;;;5012015;28;20192;-76
2023/12/28 05:43:41;;;;;;;3.50;2.10;;;10.80;99.90;;;;;;4994645;28;20594;-76
2023/12/28 05:46:08;;;;;;;3.30;1.70;;;10.80;99.90;;;;;;4997497;28;20222;-76
2023/12/28 05:48:35;;;;;;;3.03;2.10;;;10.80;99.90;;;;;;4998059;28;20206;-76
2023/12/28 05:51:05;;;;;;;2.77;1.97;;;10.90;99.90;;;;;;5010598;28;20215;-76
2023/12/28 05:53:32;;;;;;;4.57;1.90;;;10.90;99.90;;;;;;5010626;28;20224;-76
2023/12/28 05:56:03;;;;;;;2.93;2.03;;;10.80;99.90;;;;;;5001262;28;20195;-76
2023/12/28 05:58:31;;;;;;;2.57;1.60;;;10.80;99.90;;;;;;5014662;28;20203;-76
2023/12/28 06:00:58;;;;;;;3.03;1.83;;;10.80;99.90;;;;;;5011362;28;20188;-76
2023/12/28 06:03:28;;;;;;;3.50;1.87;;;10.80;99.90;;;;;;5013789;28;20215;-76
2023/12/28 06:05:55;;;;;;;6.20;1.87;;;10.80;99.90;;;;;;5014535;28;20200;-76
2023/12/28 06:08:24;;;;;;;2.30;1.70;;;10.80;99.90;;;;;;5010519;28;20200;-76
2023/12/28 06:10:52;;;;;;;4.27;1.80;;;10.80;99.90;;;;;;5010723;28;20219;-76
2023/12/28 06:13:19;;;;;;;5.00;2.07;;;10.80;99.90;;;;;;5007102;28;20224;-76
2023/12/28 06:15:46;;;;;;;2.60;1.97;;;10.70;99.90;;;;;;5004710;28;20204;-76
2023/12/28 06:18:14;;;;;;;4.30;1.90;;;10.70;99.90;;;;;;5015761;28;20645;-76
2023/12/28 06:20:41;;;;;;;3.73;2.10;;;10.80;99.90;;;;;;5015377;28;20526;-76
2023/12/28 06:23:08;;;;;;;4.77;2.07;;;10.70;99.90;;;;;;5013200;28;20226;-76
2023/12/28 06:25:37;;;;;;;2.23;1.63;;;10.70;99.90;;;;;;4997628;28;20211;-76
2023/12/28 06:28:05;;;;;;;3.07;1.97;;;10.70;99.90;;;;;;5015420;28;20682;-76
2023/12/28 06:30:32;;;;;;;3.03;1.70;;;10.70;99.90;;;;;;5015275;28;20200;-76
2023/12/28 06:33:00;;;;;;;2.90;1.90;;;10.70;99.90;;;;;;5004021;28;20228;-76
2023/12/28 06:35:27;;;;;;;3.40;1.80;;;10.70;99.90;;;;;;4993876;28;20285;-76
2023/12/28 06:37:55;;;;;;;4.63;2.17;;;10.70;99.90;;;;;;4994115;28;20204;-76
2023/12/28 06:40:22;;;;;;;3.77;1.83;;;10.70;99.90;;;;;;5008412;28;20205;-76
2023/12/28 06:42:51;;;;;;;4.50;2.00;;;10.80;99.90;;;;;;5004937;28;20251;-76
2023/12/28 06:45:18;;;;;;;3.73;1.77;;;11.00;99.90;;;;;;5016430;28;20206;-75
2023/12/28 06:47:45;;;;;;;4.70;1.80;;;11.20;99.90;;;;;;5012143;28;20204;-76
2023/12/28 06:50:48;;;;;;;2.93;2.10;;;10.90;99.90;;;;;;5012301;28;20208;-75
2023/12/28 06:53:15;;;;;;;3.77;1.80;;;10.70;99.90;;;;;;5006778;28;20223;-76
2023/12/28 06:55:43;;;;;;;2.03;1.67;;;10.70;99.90;;;;;;5013061;28;20203;-76
2023/12/28 06:58:11;;;;;;;4.50;1.83;;;10.50;99.90;;;;;;5012966;28;20215;-76
2023/12/28 07:00:41;;;;;;;3.03;1.70;;;10.70;99.90;;;;;;5007639;28;20200;-76
2023/12/28 07:03:16;;;;;;;3.83;1.80;;;10.60;99.90;;;;;;5012394;28;20234;-76
2023/12/28 07:05:44;;;;;;;4.00;1.77;;;10.60;99.90;;;;;;5012805;28;20199;-76
2023/12/28 07:08:11;;;;;;;3.40;1.80;;;10.60;99.90;;;;;;5014852;28;20183;-76
2023/12/28 07:10:39;;;;;;;4.80;2.27;;;10.60;99.90;;;;;;5013232;28;20211;-76
2023/12/28 07:13:06;;;;;;;3.13;1.77;;;10.70;99.90;;;;;;5001035;28;20231;-76
2023/12/28 07:15:35;;;;;;;2.73;1.67;;;10.60;99.90;;;;;;4998303;28;20208;-76
2023/12/28 07:18:03;;;;;;;2.90;1.97;;;10.70;99.90;;;;;;4992958;28;20200;-76
2023/12/28 07:20:30;;;;;;;4.33;2.57;;;10.70;99.90;;;;;;5007553;28;20199;-76
2023/12/28 07:22:57;;;;;;;3.00;1.90;;;10.60;99.90;;;;;;4993097;28;20231;-76
2023/12/28 07:25:25;;;;;;;7.93;2.37;;;10.60;99.90;;;;;;5008924;28;20196;-76
2023/12/28 07:31:41;;;;;;;3.40;2.00;;;10.70;99.90;;;;;;5007750;28;20720;-76
2023/12/28 07:34:09;;;;;;;7.20;2.07;;;10.60;99.90;;;;;;4992643;28;20220;-76
2023/12/28 07:36:36;;;;;;;4.97;2.30;;;10.60;99.90;;;;;;4994609;28;20666;-76
2023/12/28 07:39:03;;;;;;;4.80;2.03;;;10.60;99.90;;;;;;4993060;28;20659;-77
2023/12/28 07:41:31;;;;;;;4.83;2.00;;;10.60;99.90;;;;;;4993992;28;20204;-76
2023/12/28 07:43:58;;;;;;;6.43;2.20;;;10.60;99.90;;;;;;5004020;28;20226;-76
2023/12/28 07:47:15;;;;;;;7.87;2.50;;;10.70;99.90;;;;;;4996582;28;20207;-76
2023/12/28 07:49:44;;;;;;;3.27;1.67;;;10.60;99.90;;;;;;5009768;28;20203;-76
2023/12/28 07:52:11;;;;;;;5.93;1.70;;;10.70;99.90;;;;;;4992461;28;20594;-76
2023/12/28 07:54:38;;;;;;;5.00;2.13;;;10.70;99.90;;;;;;5013712;28;20247;-76
2023/12/28 07:57:06;;;;;;;5.23;2.00;;;10.70;99.90;;;;;;5004305;28;20200;-75
2023/12/28 07:59:33;;;;;;;7.10;1.90;;;10.70;99.90;;;;;;5011042;28;20187;-76
2023/12/28 08:02:01;;;;;;;5.63;2.00;;;10.70;99.90;;;;;;4989609;28;20219;-76
2023/12/28 08:04:45;;;;;;;4.30;2.20;;;10.70;99.90;;;;;;5005057;28;20225;-76
2023/12/28 08:07:13;;;;;;;5.97;2.03;;;10.80;99.90;;;;;;5002526;28;20199;-75
2023/12/28 08:09:40;;;;;;;4.87;1.77;;;10.70;99.90;;;;;;5006249;28;20191;-78
2023/12/28 08:12:08;;;;;;;5.37;2.10;;;10.70;99.90;;;;;;5005674;28;20223;-76
2023/12/28 08:14:35;;;;;;;6.73;1.90;;;10.70;99.90;;;;;;5006632;28;20214;-76
2023/12/28 08:17:15;;;;;;;4.40;1.70;;;10.80;99.90;;;;;;5006486;28;20202;-76
2023/12/28 08:19:42;;;;;;;4.00;2.30;;;10.70;99.90;;;;;;5005691;28;20183;-75
2023/12/28 08:22:11;;;;;;;3.43;1.90;;;10.70;99.90;;;;;;5013437;28;20206;-76
2023/12/28 08:24:38;;;;;;;5.43;1.90;;;10.80;99.90;;;;;;5002916;28;20244;-76
2023/12/28 08:27:06;;;;;;;3.27;1.60;;;10.70;99.90;;;;;;5009295;28;20203;-75
2023/12/28 08:29:33;;;;;;;5.73;2.07;;;10.70;99.90;;;;;;4998526;28;20230;-75
2023/12/28 08:32:00;;;;;;;4.50;2.00;;;10.80;99.90;;;;;;5011726;28;20215;-76
2023/12/28 08:34:28;;;;;;;4.47;1.60;;;10.80;99.90;;;;;;5011089;28;20220;-76
2023/12/28 08:36:56;;;;;;;4.43;1.80;;;10.80;99.90;;;;;;5011558;28;20196;-76
2023/12/28 08:39:24;;;;;;;2.67;1.50;;;10.80;99.90;;;;;;5011120;28;20199;-76
2023/12/28 08:41:52;;;;;;;3.57;1.77;;;10.80;99.90;;;;;;5011654;28;20214;-76
2023/12/28 08:44:19;;;;;;;10.33;2.20;;;10.80;99.90;;;;;;5010843;28;20223;-76
2023/12/28 08:46:47;;;;;;;7.37;1.83;;;10.90;99.90;;;;;;5011715;28;20199;-76
2023/12/28 08:49:59;;;;;;;3.07;1.80;;;10.90;99.90;;;;;;5011327;28;20200;-76
2023/12/28 08:52:26;;;;;;;7.67;2.40;;;10.90;99.90;;;;;;5011161;28;20223;-76
2023/12/28 08:54:55;;;;;;;5.57;2.07;;;10.90;99.90;;;;;;5011448;28;20557;-76
2023/12/28 08:57:23;;;;;;;5.83;2.07;;;10.90;99.90;;;;;;5013048;28;20191;-76
2023/12/28 08:59:50;;;;;;;2.70;1.80;;;10.90;99.90;;;;;;5010696;28;20206;-76
2023/12/28 09:02:17;;;;;;;7.13;1.87;;;10.90;99.90;;;;;;5010758;28;20188;-75
2023/12/28 09:04:45;;;;;;;6.70;2.30;;;10.90;99.90;;;;;;5010899;28;20219;-75
2023/12/28 09:07:13;;;;;;;5.70;1.90;;;10.90;99.90;;;;;;5012683;28;20190;-76
2023/12/28 09:09:41;;;;;;;6.27;2.00;;;10.90;99.90;;;;;;5010976;28;20198;-76
2023/12/28 09:12:09;;;;;;;5.17;1.67;;;11.00;99.90;;;;;;5011414;28;20250;-76
2023/12/28 09:14:37;;;;;;;5.67;2.20;;;11.00;99.90;;;;;;5011429;28;20223;-76
2023/12/28 09:17:04;;;;;;;5.30;2.40;;;10.90;99.90;;;;;;5011368;28;20218;-75
2023/12/28 09:19:32;;;;;;;4.87;1.97;;;10.90;99.90;;;;;;5011119;28;20203;-76
2023/12/28 09:21:59;;;;;;;5.57;1.83;;;11.00;99.90;;;;;;5011227;28;20195;-75
2023/12/28 09:24:27;;;;;;;5.87;1.80;;;10.90;99.90;;;;;;4994805;28;20220;-76
2023/12/28 09:26:54;;;;;;;3.80;1.57;;;10.90;99.90;;;;;;5011014;28;20191;-76
2023/12/28 09:29:23;;;;;;;3.27;1.80;;;10.90;99.90;;;;;;5011481;28;20681;-75
2023/12/28 09:31:50;;;;;;;8.87;1.90;;;10.90;99.90;;;;;;5011006;28;20219;-75
2023/12/28 09:34:19;;;;;;;3.33;1.43;;;10.90;99.90;;;;;;5011104;28;20239;-76
2023/12/28 09:36:46;;;;;;;3.53;1.87;;;11.00;99.90;;;;;;5010803;28;20200;-76
2023/12/28 09:39:13;;;;;;;5.63;1.90;;;10.90;99.90;;;;;;5010810;28;20213;-76
2023/12/28 09:41:48;;;;;;;6.10;2.00;;;10.90;99.90;;;;;;5011235;28;20200;-76
2023/12/28 09:44:18;;;;;;;5.70;2.03;;;10.90;99.90;;;;;;5010516;28;20230;-76
2023/12/28 09:46:47;;;;;;;5.30;2.00;;;10.90;99.90;;;;;;5012410;28;20183;-76
2023/12/28 09:49:14;;;;;;;4.70;1.93;;;10.90;99.90;;;;;;5011060;28;20207;-76
2023/12/28 09:51:42;;;;;;;4.37;1.80;;;11.00;99.90;;;;;;5010915;28;20207;-76
2023/12/28 09:54:09;;;;;;;6.17;2.13;;;11.00;99.90;;;;;;5010147;28;20223;-76
2023/12/28 09:56:38;;;;;;;5.53;2.33;;;11.10;99.90;;;;;;5011111;28;20199;-76
2023/12/28 09:59:06;;;;;;;3.73;1.67;;;11.00;99.90;;;;;;5010710;28;20658;-75
2023/12/28 10:01:35;;;;;;;3.70;2.13;;;11.00;99.90;;;;;;5010568;28;20199;-75
2023/12/28 10:04:04;;;;;;;8.43;2.87;;;11.00;99.90;;;;;;5010207;28;20223;-76
2023/12/28 10:06:31;;;;;;;4.90;2.20;;;11.00;99.90;;;;;;4994398;28;20206;-76
2023/12/28 10:09:00;;;;;;;7.07;2.20;;;11.00;99.90;;;;;;5010193;28;20200;-75
2023/12/28 10:11:27;;;;;;;3.80;1.93;;;11.00;99.90;;;;;;5011030;28;20208;-76
2023/12/28 10:13:55;;;;;;;10.10;2.20;;;11.10;99.90;;;;;;5015565;28;20219;-76
2023/12/28 10:16:22;;;;;;;6.10;1.97;;;11.10;99.90;;;;;;4995457;28;20208;-76
2023/12/28 10:18:50;;;;;;;6.00;1.83;;;11.10;99.90;;;;;;4979122;28;20201;-76
2023/12/28 10:21:18;;;;;;;5.10;1.70;;;11.10;99.90;;;;;;4994844;28;20200;-76
2023/12/28 10:23:46;;;;;;;9.10;2.00;;;11.10;99.90;;;;;;4993733;28;20223;-76
2023/12/28 10:26:13;;;;;;;5.63;1.80;;;11.10;99.90;;;;;;4995386;28;20200;-76
2023/12/28 10:28:42;;;;;;;5.47;2.00;;;11.10;99.90;;;;;;4978642;28;20196;-76
2023/12/28 10:31:09;;;;;;;8.13;2.60;;;11.20;99.90;;;;;;5002082;28;20211;-76
2023/12/28 10:33:37;;;;;;;6.80;1.97;;;11.10;99.90;;;;;;5013820;28;20228;-76
2023/12/28 10:36:07;;;;;;;4.20;1.70;;;11.10;99.90;;;;;;5014031;28;20196;-75
2023/12/28 10:38:37;;;;;;;5.73;2.50;;;11.10;99.90;;;;;;5014036;28;20649;-76
2023/12/28 10:41:08;;;;;;;10.80;2.67;;;11.10;99.90;;;;;;5013437;28;20192;-75
2023/12/28 10:43:44;;;;;;;6.17;2.33;;;11.10;99.90;;;;;;5013515;28;20228;-75
2023/12/28 10:46:16;;;;;;;7.50;1.87;;;11.10;99.90;;;;;;5012966;28;20597;-76
2023/12/28 10:48:46;;;;;;;4.10;2.00;;;11.10;99.90;;;;;;5013594;28;20199;-78
2023/12/28 10:51:17;;;;;;;7.40;2.50;;;11.20;99.90;;;;;;5008894;28;20215;-76
2023/12/28 10:54:02;;;;;;;5.07;2.33;;;11.20;99.90;;;;;;4994923;28;20697;-76
2023/12/28 10:56:37;;;;;;;9.43;2.30;;;11.20;99.90;;;;;;5003455;28;20201;-76
2023/12/28 10:59:18;;;;;;;6.17;2.27;;;11.20;99.90;;;;;;5009954;28;20204;-76
2023/12/28 11:01:49;;;;;;;10.10;2.93;;;11.20;99.90;;;;;;4995139;28;20177;-76
2023/12/28 11:04:24;;;;;;;8.70;2.30;;;11.30;99.90;;;;;;5016353;28;20223;-76
2023/12/28 11:06:53;;;;;;;8.27;2.20;;;11.30;99.90;;;;;;5012264;28;20199;-76
2023/12/28 11:09:31;;;;;;;6.10;1.83;;;11.30;99.90;;;;;;5009139;28;20203;-76
2023/12/28 11:12:00;;;;;;;5.07;1.57;;;11.30;99.90;;;;;;5002380;28;20535;-75
2023/12/28 11:14:28;;;;;;;9.67;2.50;;;11.30;99.90;;;;;;5011586;28;20227;-75
2023/12/28 11:16:59;;;;;;;6.47;1.97;;;11.40;99.90;;;;;;5013939;28;20188;-76
2023/12/28 11:19:28;;;;;;;8.37;2.17;;;11.40;99.90;;;;;;5008527;28;20208;-75
2023/12/28 11:21:59;;;;;;;3.17;1.70;;;11.40;99.90;;;;;;5007060;28;20188;-75
2023/12/28 11:24:30;;;;;;;6.77;2.30;;;11.40;99.90;;;;;;5005473;28;20208;-76
2023/12/28 11:27:01;;;;;;;6.07;1.60;;;11.40;99.90;;;;;;5005101;28;20200;-75
2023/12/28 11:29:53;;;;;;;5.50;1.93;;;11.50;99.90;;;;;;5009772;28;20199;-75
2023/12/28 11:32:34;;;;;;;6.27;1.83;;;11.50;99.90;;;;;;5002935;28;20212;-76
2023/12/28 11:35:01;;;;;;;4.33;1.70;;;11.50;99.90;;;;;;5007296;28;20210;-78
2023/12/28 11:37:31;;;;;;;6.53;2.17;;;11.50;99.90;;;;;;5009150;28;20204;-76
2023/12/28 11:40:11;;;;;;;8.23;2.33;;;11.50;99.90;;;;;;5017879;28;20192;-78
2023/12/28 11:42:49;;;;;;;5.00;2.30;;;11.50;99.90;;;;;;4992481;28;20570;-76
2023/12/28 11:45:19;;;;;;;3.67;1.90;;;11.60;99.90;;;;;;4992592;28;20207;-76
2023/12/28 11:47:47;;;;;;;9.73;2.73;;;11.60;99.90;;;;;;4994855;28;20809;-76
2023/12/28 11:50:14;;;;;;;5.27;1.90;;;11.60;99.90;;;;;;5011520;28;20243;-76
2023/12/28 11:52:42;;;;;;;6.43;2.00;;;11.60;99.90;;;;;;5011254;28;20223;-76
2023/12/28 11:55:11;;;;;;;6.97;2.03;;;11.70;99.90;;;;;;5013416;28;20195;-76
2023/12/28 11:57:39;;;;;;;6.20;1.83;;;11.60;99.90;;;;;;4994044;28;20204;-76
2023/12/28 12:00:08;;;;;;;7.07;2.30;;;11.70;99.90;;;;;;5011725;28;20212;-76
2023/12/28 12:02:35;;;;;;;7.93;2.10;;;11.70;99.90;;;;;;5026116;28;20191;-76
2023/12/28 12:05:18;;;;;;;5.80;1.47;;;11.70;99.90;;;;;;5031339;28;20198;-76
2023/12/28 12:07:46;;;;;;;5.50;2.00;;;11.70;99.90;;;;;;5016717;28;20207;-76
2023/12/28 12:10:17;;;;;;;5.33;1.57;;;11.70;99.90;;;;;;5011560;28;20203;-79
2023/12/28 12:12:45;;;;;;;5.70;1.80;;;11.80;99.90;;;;;;5011884;28;20238;-77
2023/12/28 12:15:12;;;;;;;9.63;2.33;;;11.80;99.90;;;;;;5013276;28;20204;-78
2023/12/28 12:17:40;;;;;;;4.50;1.70;;;11.70;99.90;;;;;;5013086;28;20200;-76
2023/12/28 12:20:09;;;;;;;6.83;1.93;;;11.80;99.90;;;;;;5011557;28;20570;-76
2023/12/28 12:22:37;;;;;;;5.80;1.83;;;11.80;99.90;;;;;;5011809;28;20203;-76
2023/12/28 12:25:07;;;;;;;6.13;2.40;;;11.80;99.90;;;;;;5011261;28;20573;-76
2023/12/28 12:27:38;;;;;;;6.40;1.57;;;11.80;99.90;;;;;;5011478;28;20207;-76
2023/12/28 12:30:07;;;;;;;7.80;2.30;;;11.70;99.90;;;;;;5008250;28;20200;-76
2023/12/28 12:32:37;;;;;;;5.45;2.03;;;11.70;99.90;;;;;;4999183;28;20196;-77
2023/12/28 12:35:05;;;;;;;8.30;1.90;;;11.70;99.90;;;;;;5010381;28;20222;-77
2023/12/28 12:37:33;;;;;;;5.97;1.80;;;11.80;99.90;;;;;;5012757;28;20195;-77
2023/12/28 12:40:00;;;;;;;5.70;1.67;;;11.80;99.90;;;;;;5010685;28;20202;-77
2023/12/28 12:42:28;;;;;;;4.70;1.60;;;11.80;99.90;;;;;;5012376;28;20199;-77
2023/12/28 12:44:57;;;;;;;4.77;1.83;;;11.90;99.90;;;;;;5012768;28;20180;-77
2023/12/28 12:47:24;;;;;;;9.80;1.90;;;11.90;99.90;;;;;;5000379;28;20204;-77
2023/12/28 12:49:52;;;;;;;4.97;1.73;;;12.00;99.90;;;;;;4991887;28;20208;-77
2023/12/28 12:52:23;;;;;;;5.60;1.92;;;11.90;99.90;;;;;;4994729;28;20188;-76
2023/12/28 12:54:54;;;;;;;9.60;1.92;;;11.90;99.90;;;;;;4996241;28;20210;-76
2023/12/28 12:57:22;;;;;;;7.05;2.10;;;11.90;99.90;;;;;;5011875;28;20206;-76
2023/12/28 12:59:50;;;;;;;7.47;1.70;;;11.90;99.90;;;;;;5012680;28;20195;-76